KAL626P RPVM-RPLL
Flight info
| Callsign | KAL626P |
|---|---|
| Flight time | 0h 54m |
| Altitude | 38000 |
| Route | MULOP W11 CONDE |
| Aircraft | B77W/H-SDE1E2E3FGHIJ2J3J4J5M1RWXY/LB1D1 |
Departure
| Time | 2026-05-06 11:51 |
|---|---|
| Airport | Mactan Cebu International Airport (RPVM) |
Arrival
| Time | 2026-05-06 12:45 |
|---|---|
| Airport | Ninoy Aquino International Airport (RPLL) |
| Time | Latitude | Longitude | Altitude | Speed | Heading |
|---|---|---|---|---|---|
| 2026-05-06 11:25 | 10.31452 | 123.97890 | 53 ft | 0 kts | 315° |
| 2026-05-06 11:39 | 10.31447 | 123.97895 | 54 ft | 2 kts | 315° |
| 2026-05-06 11:39 | 10.31439 | 123.97903 | 54 ft | 1 kts | 315° |
| 2026-05-06 11:39 | 10.31429 | 123.97915 | 54 ft | 2 kts | 299° |
| 2026-05-06 11:39 | 10.31424 | 123.97929 | 54 ft | 2 kts | 281° |
| 2026-05-06 11:40 | 10.31422 | 123.97945 | 54 ft | 2 kts | 265° |
| 2026-05-06 11:40 | 10.31425 | 123.97960 | 53 ft | 2 kts | 249° |
| 2026-05-06 11:40 | 10.31433 | 123.97974 | 52 ft | 2 kts | 232° |
| 2026-05-06 11:40 | 10.31438 | 123.97980 | 52 ft | 0 kts | 224° |
| 2026-05-06 11:44 | 10.31433 | 123.97974 | 52 ft | 4 kts | 226° |
| 2026-05-06 11:44 | 10.31395 | 123.97935 | 53 ft | 10 kts | 225° |
| 2026-05-06 11:44 | 10.31335 | 123.97903 | 53 ft | 10 kts | 172° |
| 2026-05-06 11:44 | 10.31271 | 123.97951 | 50 ft | 8 kts | 134° |
| 2026-05-06 11:45 | 10.31207 | 123.97974 | 47 ft | 12 kts | 197° |
| 2026-05-06 11:45 | 10.31136 | 123.97916 | 47 ft | 13 kts | 224° |
| 2026-05-06 11:45 | 10.31057 | 123.97836 | 48 ft | 19 kts | 225° |
| 2026-05-06 11:45 | 10.30946 | 123.97724 | 46 ft | 26 kts | 224° |
| 2026-05-06 11:46 | 10.30802 | 123.97581 | 40 ft | 30 kts | 225° |
| 2026-05-06 11:46 | 10.30647 | 123.97424 | 35 ft | 32 kts | 225° |
| 2026-05-06 11:46 | 10.30482 | 123.97259 | 32 ft | 33 kts | 225° |
| 2026-05-06 11:46 | 10.30342 | 123.97118 | 30 ft | 26 kts | 225° |
| 2026-05-06 11:47 | 10.30207 | 123.96983 | 30 ft | 27 kts | 225° |
| 2026-05-06 11:47 | 10.30073 | 123.96849 | 33 ft | 26 kts | 224° |
| 2026-05-06 11:47 | 10.29982 | 123.96757 | 36 ft | 11 kts | 225° |
| 2026-05-06 11:47 | 10.29938 | 123.96714 | 37 ft | 7 kts | 214° |
| 2026-05-06 11:48 | 10.29881 | 123.96716 | 37 ft | 9 kts | 153° |
| 2026-05-06 11:48 | 10.29826 | 123.96763 | 37 ft | 11 kts | 134° |
| 2026-05-06 11:48 | 10.29799 | 123.96791 | 36 ft | 0 kts | 134° |
| 2026-05-06 11:49 | 10.29780 | 123.96810 | 35 ft | 9 kts | 134° |
| 2026-05-06 11:49 | 10.29733 | 123.96858 | 34 ft | 8 kts | 135° |
| 2026-05-06 11:49 | 10.29730 | 123.96919 | 32 ft | 11 kts | 50° |
| 2026-05-06 11:50 | 10.29768 | 123.96954 | 32 ft | 0 kts | 45° |
| 2026-05-06 11:50 | 10.29814 | 123.96999 | 30 ft | 36 kts | 45° |
| 2026-05-06 11:50 | 10.30239 | 123.97424 | 31 ft | 128 kts | 45° |
| 2026-05-06 11:50 | 10.31005 | 123.98203 | 441 ft | 165 kts | 45° |
| 2026-05-06 11:51 | 10.31805 | 123.99014 | 1417 ft | 168 kts | 44° |
| 2026-05-06 11:51 | 10.32624 | 123.99843 | 2289 ft | 170 kts | 45° |
| 2026-05-06 11:51 | 10.33528 | 124.00626 | 3190 ft | 169 kts | 29° |
| 2026-05-06 11:51 | 10.34723 | 124.00957 | 3845 ft | 185 kts | 5° |
| 2026-05-06 11:52 | 10.36097 | 124.00734 | 4416 ft | 208 kts | 347° |
| 2026-05-06 11:52 | 10.37589 | 124.00292 | 5068 ft | 228 kts | 347° |
| 2026-05-06 11:52 | 10.39179 | 123.99823 | 5853 ft | 242 kts | 347° |
| 2026-05-06 11:52 | 10.40900 | 123.99320 | 6600 ft | 259 kts | 347° |
| 2026-05-06 11:53 | 10.42689 | 123.98813 | 7375 ft | 273 kts | 347° |
| 2026-05-06 11:53 | 10.44587 | 123.98277 | 8202 ft | 285 kts | 347° |
| 2026-05-06 11:53 | 10.46509 | 123.97730 | 9251 ft | 286 kts | 347° |
| 2026-05-06 11:53 | 10.48492 | 123.97169 | 10141 ft | 293 kts | 347° |
| 2026-05-06 11:54 | 10.50525 | 123.96596 | 10856 ft | 309 kts | 347° |
| 2026-05-06 11:54 | 10.52721 | 123.95976 | 11574 ft | 326 kts | 347° |
| 2026-05-06 11:54 | 10.54961 | 123.95343 | 12326 ft | 342 kts | 347° |
| 2026-05-06 11:54 | 10.57414 | 123.94649 | 13140 ft | 359 kts | 347° |
| 2026-05-06 11:55 | 10.59983 | 123.93921 | 13981 ft | 375 kts | 347° |
| 2026-05-06 11:55 | 10.62588 | 123.93099 | 14861 ft | 391 kts | 340° |
| 2026-05-06 11:55 | 10.65101 | 123.91773 | 15918 ft | 403 kts | 328° |
| 2026-05-06 11:55 | 10.67348 | 123.89957 | 17017 ft | 413 kts | 317° |
| 2026-05-06 11:56 | 10.69331 | 123.87717 | 18080 ft | 421 kts | 311° |
| 2026-05-06 11:56 | 10.71247 | 123.85389 | 19173 ft | 427 kts | 311° |
| 2026-05-06 11:56 | 10.73251 | 123.82967 | 20257 ft | 433 kts | 311° |
| 2026-05-06 11:56 | 10.75272 | 123.80541 | 21288 ft | 439 kts | 311° |
| 2026-05-06 11:57 | 10.77300 | 123.78120 | 22278 ft | 445 kts | 311° |
| 2026-05-06 11:57 | 10.79382 | 123.75642 | 23300 ft | 450 kts | 311° |
| 2026-05-06 11:57 | 10.81493 | 123.73135 | 24332 ft | 455 kts | 311° |
| 2026-05-06 11:57 | 10.83584 | 123.70655 | 25289 ft | 460 kts | 311° |
| 2026-05-06 11:58 | 10.85708 | 123.68138 | 26229 ft | 465 kts | 311° |
| 2026-05-06 11:58 | 10.87843 | 123.65609 | 27158 ft | 470 kts | 311° |
| 2026-05-06 11:58 | 10.90070 | 123.62972 | 28109 ft | 474 kts | 311° |
| 2026-05-06 11:58 | 10.92285 | 123.60349 | 29020 ft | 479 kts | 311° |
| 2026-05-06 11:59 | 10.94495 | 123.57732 | 29967 ft | 483 kts | 310° |
| 2026-05-06 11:59 | 10.96689 | 123.55134 | 31077 ft | 482 kts | 310° |
| 2026-05-06 11:59 | 10.98914 | 123.52519 | 32193 ft | 480 kts | 312° |
| 2026-05-06 11:59 | 11.01401 | 123.50160 | 33268 ft | 479 kts | 321° |
| 2026-05-06 12:00 | 11.04211 | 123.48099 | 34328 ft | 479 kts | 325° |
| 2026-05-06 12:00 | 11.06996 | 123.46154 | 35411 ft | 477 kts | 325° |
| 2026-05-06 12:00 | 11.09777 | 123.44218 | 36402 ft | 474 kts | 325° |
| 2026-05-06 12:00 | 11.12484 | 123.42330 | 37205 ft | 474 kts | 325° |
| 2026-05-06 12:01 | 11.15225 | 123.40418 | 37805 ft | 476 kts | 325° |
| 2026-05-06 12:01 | 11.17965 | 123.38505 | 37870 ft | 478 kts | 325° |
| 2026-05-06 12:01 | 11.23514 | 123.34628 | 37872 ft | 474 kts | 324° |
| 2026-05-06 12:02 | 11.29003 | 123.30790 | 37869 ft | 476 kts | 324° |
| 2026-05-06 12:02 | 11.34528 | 123.26924 | 37874 ft | 484 kts | 324° |
| 2026-05-06 12:03 | 11.40112 | 123.23015 | 37884 ft | 483 kts | 324° |
| 2026-05-06 12:03 | 11.45670 | 123.19122 | 37890 ft | 483 kts | 324° |
| 2026-05-06 12:04 | 11.51215 | 123.15237 | 37888 ft | 483 kts | 324° |
| 2026-05-06 12:04 | 11.56783 | 123.11332 | 37889 ft | 484 kts | 324° |
| 2026-05-06 12:05 | 11.62316 | 123.07451 | 37894 ft | 482 kts | 324° |
| 2026-05-06 12:05 | 11.67843 | 123.03572 | 37890 ft | 482 kts | 324° |
| 2026-05-06 12:06 | 11.73366 | 122.99693 | 37890 ft | 482 kts | 324° |
| 2026-05-06 12:06 | 11.78931 | 122.95784 | 37891 ft | 482 kts | 324° |
| 2026-05-06 12:07 | 11.84019 | 122.92208 | 37889 ft | 480 kts | 324° |
| 2026-05-06 12:07 | 11.89557 | 122.88313 | 37890 ft | 481 kts | 324° |
| 2026-05-06 12:08 | 11.95069 | 122.84435 | 37891 ft | 481 kts | 324° |
| 2026-05-06 12:08 | 12.00612 | 122.80533 | 37883 ft | 481 kts | 324° |
| 2026-05-06 12:09 | 12.06176 | 122.76614 | 37874 ft | 480 kts | 324° |
| 2026-05-06 12:09 | 12.11711 | 122.72715 | 37872 ft | 480 kts | 324° |
| 2026-05-06 12:10 | 12.17246 | 122.68813 | 37869 ft | 479 kts | 324° |
| 2026-05-06 12:10 | 12.22761 | 122.64922 | 37869 ft | 479 kts | 324° |
| 2026-05-06 12:11 | 12.28289 | 122.61021 | 37873 ft | 479 kts | 324° |
| 2026-05-06 12:11 | 12.33758 | 122.57159 | 37872 ft | 479 kts | 324° |
| 2026-05-06 12:12 | 12.39268 | 122.53267 | 37874 ft | 477 kts | 324° |
| 2026-05-06 12:12 | 12.44789 | 122.49364 | 37873 ft | 477 kts | 324° |
| 2026-05-06 12:13 | 12.50263 | 122.45493 | 37880 ft | 476 kts | 323° |
| 2026-05-06 12:13 | 12.55725 | 122.41627 | 37881 ft | 476 kts | 323° |
| 2026-05-06 12:14 | 12.61186 | 122.37761 | 37881 ft | 476 kts | 323° |
| 2026-05-06 12:14 | 12.66667 | 122.33878 | 37881 ft | 476 kts | 323° |
| 2026-05-06 12:15 | 12.69407 | 122.31937 | 37675 ft | 476 kts | 323° |
| 2026-05-06 12:15 | 12.72110 | 122.30021 | 37338 ft | 471 kts | 323° |
| 2026-05-06 12:15 | 12.74825 | 122.28096 | 36994 ft | 468 kts | 323° |
| 2026-05-06 12:15 | 12.77499 | 122.26200 | 36654 ft | 463 kts | 323° |
| 2026-05-06 12:16 | 12.80120 | 122.24341 | 36312 ft | 456 kts | 323° |
| 2026-05-06 12:16 | 12.82724 | 122.22493 | 35991 ft | 450 kts | 323° |
| 2026-05-06 12:16 | 12.85283 | 122.20677 | 35709 ft | 450 kts | 323° |
| 2026-05-06 12:16 | 12.87865 | 122.18843 | 35427 ft | 452 kts | 323° |
| 2026-05-06 12:17 | 12.90465 | 122.16997 | 35077 ft | 445 kts | 323° |
| 2026-05-06 12:17 | 12.93009 | 122.15190 | 34362 ft | 444 kts | 323° |
| 2026-05-06 12:17 | 12.95559 | 122.13378 | 33856 ft | 439 kts | 324° |
| 2026-05-06 12:17 | 12.98048 | 122.11610 | 33174 ft | 434 kts | 324° |
| 2026-05-06 12:18 | 13.00533 | 122.09843 | 32468 ft | 434 kts | 324° |
| 2026-05-06 12:18 | 13.03059 | 122.08047 | 31892 ft | 431 kts | 324° |
| 2026-05-06 12:18 | 13.05487 | 122.06319 | 31429 ft | 426 kts | 324° |
| 2026-05-06 12:18 | 13.07916 | 122.04592 | 30984 ft | 418 kts | 324° |
| 2026-05-06 12:19 | 13.10296 | 122.02899 | 30611 ft | 407 kts | 324° |
| 2026-05-06 12:19 | 13.12616 | 122.01247 | 30108 ft | 400 kts | 324° |
| 2026-05-06 12:19 | 13.14929 | 121.99601 | 29488 ft | 396 kts | 324° |
| 2026-05-06 12:19 | 13.17198 | 121.97985 | 28859 ft | 394 kts | 324° |
| 2026-05-06 12:20 | 13.19528 | 121.96326 | 28225 ft | 390 kts | 324° |
| 2026-05-06 12:20 | 13.21793 | 121.94711 | 27619 ft | 387 kts | 324° |
| 2026-05-06 12:20 | 13.24033 | 121.93115 | 27045 ft | 383 kts | 325° |
| 2026-05-06 12:20 | 13.26246 | 121.91538 | 26505 ft | 380 kts | 325° |
| 2026-05-06 12:21 | 13.28467 | 121.89954 | 25937 ft | 377 kts | 325° |
| 2026-05-06 12:21 | 13.30669 | 121.88384 | 25367 ft | 374 kts | 325° |
| 2026-05-06 12:21 | 13.32834 | 121.86840 | 24806 ft | 371 kts | 326° |
| 2026-05-06 12:21 | 13.34985 | 121.85307 | 24250 ft | 369 kts | 326° |
| 2026-05-06 12:22 | 13.37136 | 121.83771 | 23690 ft | 366 kts | 326° |
| 2026-05-06 12:22 | 13.39263 | 121.82253 | 23147 ft | 364 kts | 326° |
| 2026-05-06 12:22 | 13.41371 | 121.80748 | 22607 ft | 361 kts | 326° |
| 2026-05-06 12:22 | 13.43499 | 121.79229 | 22071 ft | 359 kts | 326° |
| 2026-05-06 12:23 | 13.45626 | 121.77711 | 21536 ft | 357 kts | 326° |
| 2026-05-06 12:23 | 13.47686 | 121.76238 | 21018 ft | 354 kts | 326° |
| 2026-05-06 12:23 | 13.49733 | 121.74776 | 20521 ft | 352 kts | 326° |
| 2026-05-06 12:23 | 13.51809 | 121.73292 | 20022 ft | 349 kts | 326° |
| 2026-05-06 12:24 | 13.53853 | 121.71832 | 19515 ft | 346 kts | 326° |
| 2026-05-06 12:24 | 13.55856 | 121.70400 | 19016 ft | 344 kts | 327° |
| 2026-05-06 12:24 | 13.57839 | 121.68982 | 18395 ft | 347 kts | 327° |
| 2026-05-06 12:24 | 13.59852 | 121.67542 | 18057 ft | 342 kts | 326° |
| 2026-05-06 12:25 | 13.61818 | 121.66136 | 17744 ft | 338 kts | 327° |
| 2026-05-06 12:25 | 13.63780 | 121.64732 | 17358 ft | 336 kts | 326° |
| 2026-05-06 12:25 | 13.65747 | 121.63324 | 16952 ft | 334 kts | 327° |
| 2026-05-06 12:25 | 13.67724 | 121.61910 | 16567 ft | 332 kts | 326° |
| 2026-05-06 12:26 | 13.69569 | 121.60411 | 16196 ft | 331 kts | 321° |
| 2026-05-06 12:26 | 13.71323 | 121.58815 | 15820 ft | 329 kts | 320° |
| 2026-05-06 12:26 | 13.73013 | 121.57257 | 15460 ft | 327 kts | 320° |
| 2026-05-06 12:26 | 13.74746 | 121.55666 | 15091 ft | 325 kts | 320° |
| 2026-05-06 12:27 | 13.76433 | 121.54120 | 14737 ft | 323 kts | 320° |
| 2026-05-06 12:27 | 13.78140 | 121.52557 | 14381 ft | 320 kts | 320° |
| 2026-05-06 12:27 | 13.79817 | 121.51022 | 14031 ft | 318 kts | 320° |
| 2026-05-06 12:27 | 13.81500 | 121.49481 | 13677 ft | 315 kts | 320° |
| 2026-05-06 12:28 | 13.83165 | 121.47958 | 13324 ft | 313 kts | 320° |
| 2026-05-06 12:28 | 13.84825 | 121.46438 | 12971 ft | 311 kts | 321° |
| 2026-05-06 12:28 | 13.86456 | 121.44944 | 12606 ft | 310 kts | 320° |
| 2026-05-06 12:28 | 13.88067 | 121.43469 | 12239 ft | 308 kts | 321° |
| 2026-05-06 12:29 | 13.89663 | 121.42007 | 11875 ft | 307 kts | 321° |
| 2026-05-06 12:29 | 13.91266 | 121.40538 | 11527 ft | 305 kts | 321° |
| 2026-05-06 12:29 | 13.92870 | 121.39068 | 11189 ft | 303 kts | 321° |
| 2026-05-06 12:29 | 13.94470 | 121.37601 | 11065 ft | 300 kts | 320° |
| 2026-05-06 12:30 | 13.96016 | 121.36182 | 11054 ft | 295 kts | 321° |
| 2026-05-06 12:30 | 13.97543 | 121.34783 | 11055 ft | 292 kts | 320° |
| 2026-05-06 12:30 | 13.99075 | 121.33377 | 10911 ft | 286 kts | 321° |
| 2026-05-06 12:30 | 14.00578 | 121.31999 | 10491 ft | 289 kts | 321° |
| 2026-05-06 12:31 | 14.02072 | 121.30629 | 10159 ft | 287 kts | 321° |
| 2026-05-06 12:31 | 14.03562 | 121.29260 | 9856 ft | 285 kts | 320° |
| 2026-05-06 12:31 | 14.04815 | 121.27638 | 9457 ft | 290 kts | 300° |
| 2026-05-06 12:31 | 14.05645 | 121.25709 | 9118 ft | 290 kts | 294° |
| 2026-05-06 12:32 | 14.06372 | 121.23770 | 8773 ft | 289 kts | 292° |
| 2026-05-06 12:32 | 14.07091 | 121.21831 | 8508 ft | 286 kts | 293° |
| 2026-05-06 12:32 | 14.07806 | 121.19910 | 8316 ft | 285 kts | 293° |
| 2026-05-06 12:32 | 14.08525 | 121.17985 | 8142 ft | 286 kts | 293° |
| 2026-05-06 12:33 | 14.09250 | 121.16045 | 7967 ft | 284 kts | 293° |
| 2026-05-06 12:33 | 14.09966 | 121.14130 | 7795 ft | 282 kts | 293° |
| 2026-05-06 12:33 | 14.10676 | 121.12228 | 7627 ft | 282 kts | 293° |
| 2026-05-06 12:33 | 14.11377 | 121.10352 | 7460 ft | 280 kts | 293° |
| 2026-05-06 12:34 | 14.12084 | 121.08459 | 7288 ft | 280 kts | 293° |
| 2026-05-06 12:34 | 14.12795 | 121.06555 | 7125 ft | 279 kts | 293° |
| 2026-05-06 12:34 | 14.13509 | 121.04642 | 6957 ft | 279 kts | 293° |
| 2026-05-06 12:34 | 14.14210 | 121.02764 | 6788 ft | 279 kts | 293° |
| 2026-05-06 12:35 | 14.14919 | 121.00864 | 6620 ft | 278 kts | 293° |
| 2026-05-06 12:35 | 14.15625 | 120.98971 | 6455 ft | 278 kts | 293° |
| 2026-05-06 12:35 | 14.16316 | 120.97117 | 6289 ft | 275 kts | 293° |
| 2026-05-06 12:35 | 14.17112 | 120.95330 | 6112 ft | 266 kts | 308° |
| 2026-05-06 12:36 | 14.18444 | 120.94032 | 5954 ft | 258 kts | 327° |
| 2026-05-06 12:36 | 14.19984 | 120.93013 | 5802 ft | 255 kts | 332° |
| 2026-05-06 12:36 | 14.21535 | 120.92078 | 5662 ft | 254 kts | 332° |
| 2026-05-06 12:36 | 14.23110 | 120.91145 | 5513 ft | 254 kts | 333° |
| 2026-05-06 12:37 | 14.24691 | 120.90211 | 5353 ft | 248 kts | 333° |
| 2026-05-06 12:37 | 14.26190 | 120.89324 | 5206 ft | 242 kts | 333° |
| 2026-05-06 12:37 | 14.27687 | 120.88439 | 5061 ft | 234 kts | 333° |
| 2026-05-06 12:37 | 14.29138 | 120.87597 | 4918 ft | 231 kts | 333° |
| 2026-05-06 12:38 | 14.30552 | 120.86781 | 4771 ft | 229 kts | 333° |
| 2026-05-06 12:38 | 14.31958 | 120.85969 | 4602 ft | 229 kts | 333° |
| 2026-05-06 12:38 | 14.33362 | 120.85156 | 4413 ft | 229 kts | 333° |
| 2026-05-06 12:38 | 14.34769 | 120.84341 | 4225 ft | 227 kts | 333° |
| 2026-05-06 12:39 | 14.36190 | 120.83518 | 4032 ft | 227 kts | 333° |
| 2026-05-06 12:39 | 14.37621 | 120.82788 | 3801 ft | 225 kts | 347° |
| 2026-05-06 12:39 | 14.39202 | 120.82794 | 3513 ft | 221 kts | 17° |
| 2026-05-06 12:39 | 14.40538 | 120.83588 | 3235 ft | 218 kts | 48° |
| 2026-05-06 12:40 | 14.41363 | 120.84905 | 2983 ft | 214 kts | 60° |
| 2026-05-06 12:40 | 14.42056 | 120.86217 | 2777 ft | 197 kts | 60° |
| 2026-05-06 12:40 | 14.42720 | 120.87427 | 2560 ft | 185 kts | 60° |
| 2026-05-06 12:40 | 14.43357 | 120.88560 | 2353 ft | 179 kts | 59° |
| 2026-05-06 12:41 | 14.43968 | 120.89643 | 2152 ft | 165 kts | 60° |
| 2026-05-06 12:41 | 14.44533 | 120.90649 | 1964 ft | 152 kts | 60° |
| 2026-05-06 12:41 | 14.45049 | 120.91570 | 1791 ft | 141 kts | 60° |
| 2026-05-06 12:41 | 14.45542 | 120.92448 | 1626 ft | 140 kts | 60° |
| 2026-05-06 12:42 | 14.46032 | 120.93327 | 1458 ft | 138 kts | 60° |
| 2026-05-06 12:42 | 14.46517 | 120.94192 | 1285 ft | 137 kts | 61° |
| 2026-05-06 12:42 | 14.46994 | 120.95047 | 1113 ft | 136 kts | 60° |
| 2026-05-06 12:42 | 14.47471 | 120.95894 | 945 ft | 137 kts | 62° |
| 2026-05-06 12:43 | 14.47951 | 120.96753 | 787 ft | 137 kts | 60° |
| 2026-05-06 12:43 | 14.48440 | 120.97594 | 591 ft | 137 kts | 62° |
| 2026-05-06 12:43 | 14.48919 | 120.98446 | 411 ft | 136 kts | 63° |
| 2026-05-06 12:43 | 14.49385 | 120.99287 | 231 ft | 136 kts | 63° |
| 2026-05-06 12:44 | 14.49857 | 121.00143 | 58 ft | 134 kts | 63° |
| 2026-05-06 12:44 | 14.50269 | 121.00890 | 41 ft | 101 kts | 59° |
| 2026-05-06 12:44 | 14.50552 | 121.01394 | 52 ft | 65 kts | 59° |
| 2026-05-06 12:44 | 14.50753 | 121.01765 | 56 ft | 54 kts | 59° |
| 2026-05-06 12:45 | 14.50917 | 121.02049 | 55 ft | 42 kts | 60° |
| 2026-05-06 12:45 | 14.51013 | 121.02203 | 59 ft | 19 kts | 50° |
| 2026-05-06 12:45 | 14.51144 | 121.02300 | 64 ft | 6 kts | 15° |
| 2026-05-06 12:46 | 14.51178 | 121.02285 | 65 ft | 6 kts | 299° |
| 2026-05-06 12:46 | 14.51165 | 121.02213 | 62 ft | 14 kts | 241° |
| 2026-05-06 12:46 | 14.51111 | 121.02113 | 60 ft | 11 kts | 240° |
| 2026-05-06 12:46 | 14.51075 | 121.02050 | 58 ft | 8 kts | 240° |
| 2026-05-06 12:47 | 14.51049 | 121.02003 | 57 ft | 7 kts | 240° |
| 2026-05-06 12:47 | 14.51038 | 121.01980 | 57 ft | 0 kts | 262° |
| 2026-05-06 12:49 | 14.51037 | 121.01966 | 56 ft | 6 kts | 262° |
| 2026-05-06 12:49 | 14.51056 | 121.01902 | 56 ft | 12 kts | 310° |
| 2026-05-06 12:49 | 14.51127 | 121.01825 | 57 ft | 15 kts | 315° |